Time;durP1;ratioP1;P1;durP2;ratioP2;P2;SDS_P1;SDS_P2;PMS_P1;PMS_P2;Temp;Humidity;BMP_temperature;BMP_pressure;BME280_temperature;BME280_humidity;BME280_pressure;Samples;Min_cycle;Max_cycle;Signal;HPM_P1;HPM_P2
2021/01/19 00:02:16;;;;;;;;;86.75;75.25;;;;;3.83;37.87;98926.13;6189915;28;125132;-59
2021/01/19 00:05:17;;;;;;;;;92.25;77.00;;;;;3.68;38.34;98938.56;6180798;28;126532;-59
2021/01/19 00:08:19;;;;;;;;;89.00;74.50;;;;;3.38;38.72;98892.25;6201775;28;127635;-59
2021/01/19 00:11:20;;;;;;;;;95.40;80.60;;;;;3.67;38.50;98910.22;6201038;28;126601;-59
2021/01/19 00:14:22;;;;;;;;;97.50;79.00;;;;;3.65;38.29;98911.44;6189025;28;124734;-60
2021/01/19 00:17:23;;;;;;;;;95.00;79.80;;;;;3.56;38.45;98904.50;6187982;28;128540;-59
2021/01/19 00:20:25;;;;;;;;;91.00;78.00;;;;;3.54;38.52;98906.50;6193176;28;126642;-59
2021/01/19 00:23:26;;;;;;;;;94.40;79.00;;;;;3.59;38.96;98910.28;6184769;28;125211;-59
2021/01/19 00:26:28;;;;;;;;;100.50;78.25;;;;;3.60;38.94;98909.28;6205509;28;128007;-60
2021/01/19 00:29:30;;;;;;;;;89.00;76.75;;;;;3.62;39.16;98893.94;6205630;28;128296;-59
2021/01/19 00:32:31;;;;;;;;;93.00;77.60;;;;;3.57;39.24;98893.63;6203572;28;125347;-58
2021/01/19 00:35:33;;;;;;;;;94.20;79.20;;;;;3.65;39.30;98914.09;6201361;28;126439;-59
2021/01/19 00:38:35;;;;;;;;;93.40;78.00;;;;;3.78;39.68;98903.66;6205477;28;125074;-59
2021/01/19 00:41:36;;;;;;;;;93.00;77.40;;;;;3.87;39.37;98894.59;6204840;28;125601;-58
2021/01/19 00:44:38;;;;;;;;;94.50;79.25;;;;;3.89;39.57;98895.25;6202295;28;125439;-59
2021/01/19 00:47:39;;;;;;;;;91.00;77.40;;;;;3.85;39.34;98899.28;6188031;28;125357;-59
2021/01/19 00:50:41;;;;;;;;;91.00;75.80;;;;;3.84;39.70;98901.13;6206976;28;126100;-59
2021/01/19 00:53:43;;;;;;;;;95.75;77.75;;;;;3.89;39.89;98906.75;6180528;28;126735;-59
2021/01/19 00:56:44;;;;;;;;;91.25;75.25;;;;;3.96;39.66;98893.50;6202516;28;126694;-60
2021/01/19 00:59:52;;;;;;;;;95.75;79.00;;;;;3.82;39.77;98881.78;6166895;28;126485;-59
2021/01/19 01:02:53;;;;;;;;;94.60;77.60;;;;;3.89;39.99;98887.25;6204653;28;125186;-59
2021/01/19 01:05:58;;;;;;;;;89.67;75.00;;;;;3.81;40.23;98874.00;6206835;28;125178;-58
2021/01/19 01:08:59;;;;;;;;;100.00;82.50;;;;;3.58;40.35;98841.16;6185420;28;126969;-58
2021/01/19 01:12:01;;;;;;;;;91.00;76.00;;;;;3.71;40.18;98868.91;6188206;28;125412;-58
2021/01/19 01:15:04;;;;;;;;;93.75;81.00;;;;;3.71;40.32;98862.72;6180142;28;126373;-58
2021/01/19 01:18:11;;;;;;;;;93.40;82.00;;;;;3.70;40.62;98866.41;6204516;28;124797;-60
2021/01/19 01:21:13;;;;;;;;;96.40;78.60;;;;;3.60;40.68;98863.97;6161732;28;125026;-59
2021/01/19 01:24:14;;;;;;;;;92.40;79.00;;;;;3.82;40.74;98867.63;6199715;28;125519;-59
2021/01/19 01:27:16;;;;;;;;;94.60;79.60;;;;;3.87;40.51;98865.25;6201446;28;125160;-59
2021/01/19 01:30:17;;;;;;;;;95.60;77.60;;;;;3.85;40.88;98851.28;6209204;28;126233;-58
2021/01/19 01:33:19;;;;;;;;;100.00;85.20;;;;;3.87;40.58;98854.56;6180130;28;124124;-59
2021/01/19 01:36:20;;;;;;;;;90.20;76.00;;;;;3.78;40.53;98843.16;6206213;28;126572;-59
2021/01/19 01:39:22;;;;;;;;;88.20;77.60;;;;;3.87;40.43;98838.56;6188126;28;127585;-59
2021/01/19 01:42:24;;;;;;;;;95.25;79.00;;;;;3.89;40.85;98831.25;6209876;28;127002;-58
2021/01/19 01:45:27;;;;;;;;;94.60;79.00;;;;;3.76;40.45;98812.38;6206718;28;127375;-59
2021/01/19 01:48:29;;;;;;;;;95.00;80.00;;;;;3.82;40.56;98808.94;6206759;28;127067;-59
2021/01/19 01:51:32;;;;;;;;;91.00;79.00;;;;;4.02;40.37;98828.78;6207294;28;126548;-59
2021/01/19 01:54:34;;;;;;;;;99.25;79.00;;;;;4.02;40.53;98822.59;6203382;28;125180;-58
2021/01/19 01:57:38;;;;;;;;;91.40;78.20;;;;;4.04;40.61;98817.94;6179589;28;127488;-58
2021/01/19 02:00:39;;;;;;;;;97.00;81.00;;;;;3.95;40.63;98803.03;6209079;28;125643;-59
2021/01/19 02:03:41;;;;;;;;;99.75;82.00;;;;;4.00;40.66;98811.31;6187256;28;126178;-59
2021/01/19 02:06:42;;;;;;;;;99.40;82.80;;;;;3.78;40.70;98779.16;6191807;28;127910;-59
2021/01/19 02:09:49;;;;;;;;;93.00;79.00;;;;;4.05;40.80;98808.91;6206754;28;125248;-59
2021/01/19 02:12:57;;;;;;;;;92.40;80.60;;;;;4.06;40.53;98803.38;6183694;28;124401;-59
2021/01/19 02:16:14;;;;;;;;;89.80;78.00;;;;;4.07;40.92;98807.72;6205271;28;124222;-59
2021/01/19 02:19:34;;;;;;;;;91.67;77.00;;;;;4.11;40.96;98806.34;6208499;28;127041;-60
2021/01/19 02:23:14;;;;;;;;;94.00;78.75;;;;;4.14;40.98;98802.50;6202706;28;124610;-58
2021/01/19 02:26:37;;;;;;;;;89.50;75.50;;;;;4.19;41.15;98797.44;6190373;28;127801;-58
2021/01/19 02:30:04;;;;;;;;;97.50;82.50;;;;;4.20;41.06;98799.91;6210176;28;125782;-58
2021/01/19 02:33:17;;;;;;;;;97.25;80.75;;;;;4.02;41.19;98767.41;6204987;28;124498;-58
2021/01/19 02:36:34;;;;;;;;;89.00;79.00;;;;;4.29;41.23;98787.31;6190214;28;124815;-59
2021/01/19 02:39:36;;;;;;;;;94.00;79.00;;;;;4.33;41.43;98781.44;6203264;28;125669;-59
2021/01/19 02:42:45;;;;;;;;;98.60;80.00;;;;;4.38;41.41;98785.38;6191277;28;126524;-59
2021/01/19 02:45:48;;;;;;;;;94.00;81.80;;;;;4.45;41.68;98788.97;6205461;28;127143;-59
2021/01/19 02:48:49;;;;;;;;;91.75;77.75;;;;;4.48;41.74;98775.25;6200613;28;127911;-59
2021/01/19 02:51:53;;;;;;;;;92.60;79.40;;;;;4.55;41.54;98784.16;6206365;28;125193;-59
2021/01/19 02:54:55;;;;;;;;;94.80;79.60;;;;;4.60;41.51;98774.56;6205263;28;127379;-59
2021/01/19 02:58:16;;;;;;;;;96.00;79.50;;;;;4.69;41.57;98776.13;6173375;28;124277;-59
2021/01/19 03:01:20;;;;;;;;;94.00;79.60;;;;;4.74;41.63;98773.72;6203107;28;125898;-60
2021/01/19 03:04:22;;;;;;;;;97.00;83.00;;;;;4.67;41.59;98762.16;6191937;28;124702;-58
2021/01/19 03:07:27;;;;;;;;;93.60;80.60;;;;;4.80;41.73;98770.31;6172122;28;125024;-59
2021/01/19 03:10:30;;;;;;;;;91.40;80.00;;;;;4.79;41.82;98770.50;6185878;28;124865;-59
2021/01/19 03:13:32;;;;;;;;;102.25;83.25;;;;;4.87;41.68;98762.38;6180603;28;126282;-58
2021/01/19 03:16:33;;;;;;;;;92.60;83.40;;;;;4.90;42.15;98759.31;6204093;28;127102;-58
2021/01/19 03:19:40;;;;;;;;;98.00;83.20;;;;;4.64;42.06;98709.09;6202384;28;124443;-59
2021/01/19 03:22:41;;;;;;;;;99.20;84.20;;;;;4.77;41.97;98722.63;6203824;28;125875;-59
2021/01/19 03:25:42;;;;;;;;;107.20;85.80;;;;;4.68;41.95;98696.22;6208171;28;126334;-58
2021/01/19 03:28:44;;;;;;;;;92.80;83.40;;;;;5.07;42.05;98744.72;6189223;28;126652;-58
2021/01/19 03:31:46;;;;;;;;;99.80;86.00;;;;;5.09;42.06;98747.19;6207249;28;125545;-59
2021/01/19 03:34:47;;;;;;;;;95.80;82.60;;;;;4.30;42.25;98610.97;6181122;28;127326;-59
2021/01/19 03:37:49;;;;;;;;;103.60;87.80;;;;;5.15;41.92;98744.59;6203814;28;126383;-59
2021/01/19 03:40:50;;;;;;;;;100.00;87.00;;;;;4.80;42.07;98694.69;6201453;28;126136;-59
2021/01/19 03:43:51;;;;;;;;;101.40;86.60;;;;;4.97;42.14;98700.63;6203143;28;127685;-59
2021/01/19 03:46:53;;;;;;;;;102.00;86.00;;;;;5.22;42.30;98737.47;6149747;28;124182;-59
2021/01/19 03:49:54;;;;;;;;;97.40;82.00;;;;;5.27;42.15;98736.06;6208111;28;128385;-59
2021/01/19 03:52:57;;;;;;;;;99.40;88.40;;;;;5.18;42.18;98720.16;6178861;28;126308;-59
2021/01/19 03:55:59;;;;;;;;;97.50;83.50;;;;;5.33;42.44;98740.63;6197128;28;124998;-58
2021/01/19 03:59:00;;;;;;;;;94.40;79.00;;;;;5.35;42.70;98727.91;6190915;28;126700;-59
2021/01/19 04:02:02;;;;;;;;;96.00;81.00;;;;;5.36;42.98;98729.56;6194330;28;125225;-59
2021/01/19 04:05:04;;;;;;;;;94.20;79.40;;;;;5.29;43.06;98728.66;6207196;28;126120;-58
2021/01/19 04:08:06;;;;;;;;;93.00;77.75;;;;;5.12;43.00;98680.84;6180079;28;126881;-59
2021/01/19 04:11:07;;;;;;;;;95.50;80.00;;;;;5.43;42.90;98719.75;6202036;28;127689;-59
2021/01/19 04:14:09;;;;;;;;;95.40;78.60;;;;;5.49;43.12;98721.66;6203513;28;125110;-59
2021/01/19 04:17:11;;;;;;;;;92.50;80.00;;;;;5.54;43.28;98728.06;6206473;28;125225;-58
2021/01/19 04:20:12;;;;;;;;;87.40;73.60;;;;;5.53;43.36;98726.41;6184833;28;126871;-59
2021/01/19 04:23:14;;;;;;;;;87.20;73.00;;;;;5.54;43.66;98725.41;6206667;28;125239;-59
2021/01/19 04:26:15;;;;;;;;;93.00;78.00;;;;;5.30;43.15;98684.91;6202193;28;125417;-58
2021/01/19 04:29:16;;;;;;;;;94.40;81.60;;;;;5.45;43.14;98723.06;6184284;28;126385;-58
2021/01/19 04:32:18;;;;;;;;;91.80;77.00;;;;;5.44;43.30;98722.22;6206231;28;126637;-58
2021/01/19 04:35:19;;;;;;;;;85.40;73.80;;;;;5.45;43.95;98728.41;6207633;28;127608;-59
2021/01/19 04:38:21;;;;;;;;;88.80;73.80;;;;;5.43;44.06;98725.09;6181688;28;125230;-58
2021/01/19 04:41:25;;;;;;;;;81.60;71.00;;;;;5.44;44.42;98721.41;6197935;28;127927;-58
2021/01/19 04:44:27;;;;;;;;;82.00;67.60;;;;;5.37;44.70;98715.19;6205662;28;125947;-59
2021/01/19 04:47:32;;;;;;;;;78.80;63.00;;;;;5.49;45.21;98733.19;6203825;28;127601;-58
2021/01/19 04:50:35;;;;;;;;;79.50;65.00;;;;;5.55;45.27;98728.91;6202945;28;125840;-59
2021/01/19 04:53:42;;;;;;;;;76.00;60.80;;;;;5.52;45.18;98714.06;6199962;28;124583;-59
2021/01/19 04:56:53;;;;;;;;;72.20;55.20;;;;;5.70;45.66;98726.97;6205461;28;125913;-58
2021/01/19 05:00:00;;;;;;;;;70.00;55.00;;;;;5.77;45.75;98724.31;6200353;28;125935;-59
2021/01/19 05:03:01;;;;;;;;;69.00;53.00;;;;;5.86;45.69;98725.84;6202314;28;126396;-59
2021/01/19 05:06:14;;;;;;;;;66.00;51.00;;;;;5.95;45.78;98727.38;6208451;28;126599;-59
2021/01/19 05:09:22;;;;;;;;;66.00;49.20;;;;;5.74;46.25;98684.59;6202674;28;124036;-59
2021/01/19 05:12:32;;;;;;;;;67.00;51.20;;;;;5.89;46.05;98696.06;6175828;28;125641;-59
2021/01/19 05:15:44;;;;;;;;;67.50;50.00;;;;;6.12;45.79;98720.69;6190610;28;125256;-58
2021/01/19 05:18:46;;;;;;;;;67.20;50.40;;;;;6.24;45.65;98729.81;6209258;28;125995;-59
2021/01/19 05:21:52;;;;;;;;;60.00;46.00;;;;;6.32;46.04;98728.81;6196685;28;127316;-59
2021/01/19 05:24:54;;;;;;;;;60.00;46.40;;;;;6.13;46.45;98695.59;6210004;28;126092;-59
2021/01/19 05:27:55;;;;;;;;;55.20;44.80;;;;;6.22;47.01;98729.19;6207500;28;128075;-59
2021/01/19 05:30:56;;;;;;;;;58.00;45.00;;;;;6.25;46.61;98731.50;6210280;28;125426;-59
2021/01/19 05:34:06;;;;;;;;;57.40;45.00;;;;;6.16;47.03;98723.81;6182364;28;125306;-60
2021/01/19 05:37:07;;;;;;;;;59.40;45.00;;;;;6.24;47.01;98729.00;6207602;28;124559;-59
2021/01/19 05:40:09;;;;;;;;;56.75;43.75;;;;;6.22;47.23;98734.53;6204237;28;125052;-60
2021/01/19 05:43:11;;;;;;;;;54.00;42.60;;;;;6.25;47.73;98730.66;6207180;28;125056;-59
2021/01/19 05:46:24;;;;;;;;;51.80;41.60;;;;;6.27;47.21;98724.06;6189025;28;125079;-59
2021/01/19 05:49:28;;;;;;;;;50.00;41.00;;;;;6.35;47.40;98720.41;6194654;28;127107;-58
2021/01/19 05:52:31;;;;;;;;;55.00;42.00;;;;;6.38;47.23;98734.22;6202548;28;127197;-59
2021/01/19 05:55:33;;;;;;;;;55.80;44.00;;;;;6.38;47.38;98728.88;6169575;28;126079;-59
2021/01/19 05:58:36;;;;;;;;;58.20;45.00;;;;;6.29;47.40;98700.63;6184414;28;127777;-60
2021/01/19 06:01:38;;;;;;;;;56.50;44.00;;;;;6.36;47.40;98720.19;6206860;28;125962;-60
2021/01/19 06:04:50;;;;;;;;;48.00;39.00;;;;;6.42;47.59;98729.28;6209700;28;126481;-59
2021/01/19 06:07:53;;;;;;;;;53.00;42.00;;;;;6.51;47.49;98723.56;6207064;28;127162;-58
2021/01/19 06:10:55;;;;;;;;;50.80;41.00;;;;;6.50;47.44;98718.41;6181108;28;127195;-59
2021/01/19 06:13:58;;;;;;;;;49.00;39.75;;;;;6.44;47.89;98722.72;6205851;28;126569;-59
2021/01/19 06:17:05;;;;;;;;;50.00;40.00;;;;;6.44;48.15;98719.22;6184623;28;125981;-59
2021/01/19 06:20:07;;;;;;;;;52.00;39.00;;;;;6.34;48.35;98698.16;6209689;28;125946;-59
2021/01/19 06:23:10;;;;;;;;;49.00;38.00;;;;;6.53;48.67;98718.00;6197350;28;124851;-59
2021/01/19 06:26:13;;;;;;;;;43.60;35.00;;;;;6.56;48.63;98714.94;6204849;28;126619;-59
2021/01/19 06:29:22;;;;;;;;;37.00;32.00;;;;;6.47;48.75;98690.19;6188258;28;128014;-59
2021/01/19 06:32:28;;;;;;;;;33.00;27.50;;;;;6.73;48.69;98713.56;6203623;28;124731;-59
2021/01/19 06:35:39;;;;;;;;;29.80;25.80;;;;;6.80;48.98;98719.75;6202817;28;125928;-59
2021/01/19 06:38:48;;;;;;;;;25.20;21.20;;;;;6.84;49.18;98715.63;6203782;28;126045;-59
2021/01/19 06:41:57;;;;;;;;;25.00;22.00;;;;;6.87;49.27;98727.81;6193204;28;124765;-57
2021/01/19 06:45:00;;;;;;;;;27.50;22.75;;;;;6.85;49.32;98717.28;6203139;28;127000;-57
2021/01/19 06:48:03;;;;;;;;;20.40;19.40;;;;;6.90;49.25;98720.19;6198788;28;126258;-58
2021/01/19 06:51:10;;;;;;;;;22.60;19.60;;;;;6.75;49.55;98692.72;6186655;28;124945;-57
2021/01/19 06:54:18;;;;;;;;;22.00;19.00;;;;;6.88;49.64;98710.72;6205893;28;125574;-57
2021/01/19 06:57:32;;;;;;;;;18.00;17.00;;;;;6.98;49.46;98719.19;6203564;28;126533;-57
2021/01/19 07:00:41;;;;;;;;;20.25;20.00;;;;;7.08;49.42;98716.13;6167735;28;126133;-58
2021/01/19 07:03:44;;;;;;;;;20.75;18.25;;;;;6.91;49.21;98670.94;6175490;28;126565;-58
2021/01/19 07:07:15;;;;;;;;;22.00;18.60;;;;;7.29;49.09;98718.59;6205263;28;128197;-57
2021/01/19 07:10:50;;;;;;;;;22.00;21.00;;;;;7.17;48.81;98690.78;6205176;28;127008;-58
2021/01/19 07:14:11;;;;;;;;;20.00;19.00;;;;;7.37;48.75;98723.78;6201051;28;124819;-58
2021/01/19 07:17:18;;;;;;;;;22.00;18.00;;;;;7.28;49.20;98727.72;6204398;28;124691;-58
2021/01/19 07:20:29;;;;;;;;;19.60;18.00;;;;;7.34;49.23;98730.38;6204113;28;125900;-58
2021/01/19 07:23:37;;;;;;;;;24.40;20.80;;;;;7.47;48.88;98720.72;6196445;28;124799;-58
2021/01/19 07:26:41;;;;;;;;;23.00;19.00;;;;;7.50;48.90;98736.38;6201435;28;124676;-58
2021/01/19 07:29:43;;;;;;;;;18.00;18.00;;;;;7.46;48.51;98703.78;6201484;28;125981;-58
2021/01/19 07:32:48;;;;;;;;;20.00;17.00;;;;;7.67;48.73;98726.91;6203765;28;125087;-57
2021/01/19 07:35:50;;;;;;;;;22.00;21.50;;;;;7.57;48.87;98723.81;6204568;28;124794;-57
2021/01/19 07:38:52;;;;;;;;;21.60;19.00;;;;;7.67;48.76;98725.00;6195766;28;126521;-57
2021/01/19 07:41:53;;;;;;;;;18.20;18.20;;;;;7.71;48.64;98728.97;6203915;28;125248;-57
2021/01/19 07:45:04;;;;;;;;;20.00;19.00;;;;;7.75;48.74;98732.88;6201062;28;126871;-57
2021/01/19 07:48:09;;;;;;;;;21.00;18.40;;;;;7.86;48.42;98728.75;6203487;28;125063;-58
2021/01/19 07:51:15;;;;;;;;;21.50;20.50;;;;;7.66;48.65;98704.59;6203727;28;124749;-58
2021/01/19 07:54:28;;;;;;;;;22.40;19.40;;;;;7.92;48.39;98722.53;6202986;28;124687;-57
2021/01/19 07:57:30;;;;;;;;;21.40;21.00;;;;;7.78;48.49;98704.78;6199042;28;127262;-57
2021/01/19 08:00:32;;;;;;;;;24.00;22.00;;;;;7.87;48.40;98719.63;6200048;28;123935;-58
2021/01/19 08:03:35;;;;;;;;;18.75;16.75;;;;;7.86;48.53;98717.19;6205034;28;127576;-58
2021/01/19 08:06:38;;;;;;;;;21.00;19.00;;;;;7.87;48.69;98713.47;6204732;28;125059;-57
2021/01/19 08:09:40;;;;;;;;;21.00;19.00;;;;;7.80;48.66;98705.41;6184303;28;124170;-58
2021/01/19 08:12:43;;;;;;;;;21.60;19.60;;;;;7.97;48.34;98711.97;6203207;28;127164;-58
2021/01/19 08:16:00;;;;;;;;;20.50;19.75;;;;;7.93;48.73;98712.59;6204172;28;125403;-58
2021/01/19 08:19:05;;;;;;;;;25.00;22.00;;;;;8.03;48.49;98708.47;6203495;28;123930;-58
2021/01/19 08:22:07;;;;;;;;;19.00;19.00;;;;;8.11;48.18;98694.00;6199858;28;127202;-57
2021/01/19 08:25:22;;;;;;;;;23.00;21.00;;;;;8.17;48.46;98702.03;6190066;28;124545;-59
2021/01/19 08:28:23;;;;;;;;;20.40;19.00;;;;;8.12;48.08;98677.66;6188615;28;124794;-58
2021/01/19 08:31:28;;;;;;;;;21.00;19.40;;;;;8.26;48.38;98698.06;6203858;28;127669;-58
2021/01/19 08:34:32;;;;;;;;;22.20;19.20;;;;;8.35;48.08;98703.25;6206348;28;123864;-57
2021/01/19 08:37:35;;;;;;;;;24.40;21.00;;;;;8.19;48.30;98699.13;6188476;28;125139;-58
2021/01/19 08:40:37;;;;;;;;;26.00;23.50;;;;;8.03;48.12;98670.88;6191686;28;125131;-59
2021/01/19 08:43:59;;;;;;;;;22.40;21.00;;;;;8.31;48.13;98696.66;6208106;28;127045;-58
2021/01/19 08:47:01;;;;;;;;;23.00;21.00;;;;;8.37;47.93;98707.38;6207822;28;125979;-57
2021/01/19 08:50:03;;;;;;;;;24.50;23.00;;;;;8.44;47.64;98710.03;6203190;28;125174;-56
2021/01/19 08:53:08;;;;;;;;;27.00;23.00;;;;;8.40;47.65;98687.34;6193633;28;127589;-57
2021/01/19 08:56:19;;;;;;;;;23.25;21.00;;;;;8.67;47.07;98708.50;6203161;28;126540;-57
2021/01/19 08:59:21;;;;;;;;;26.00;22.80;;;;;8.74;46.97;98707.66;6213098;28;125180;-59
2021/01/19 09:02:29;;;;;;;;;22.00;21.00;;;;;8.60;46.99;98701.50;6199953;28;127646;-58
2021/01/19 09:05:31;;;;;;;;;22.60;21.00;;;;;8.86;46.77;98713.97;6202009;28;124611;-58
2021/01/19 09:08:35;;;;;;;;;23.00;21.60;;;;;8.72;46.86;98694.41;6206417;28;126693;-57
2021/01/19 09:11:36;;;;;;;;;22.20;20.40;;;;;8.93;46.91;98721.00;6205983;28;125967;-57
2021/01/19 09:14:38;;;;;;;;;24.00;21.00;;;;;8.96;46.79;98717.84;6204257;28;127446;-58
2021/01/19 09:17:40;;;;;;;;;24.00;22.00;;;;;8.85;46.97;98713.16;6186789;28;124328;-56
2021/01/19 09:20:42;;;;;;;;;25.50;22.00;;;;;8.96;46.82;98725.09;6208691;28;125128;-57
2021/01/19 09:23:44;;;;;;;;;22.80;18.20;;;;;9.07;46.47;98719.88;6208559;28;124940;-58
2021/01/19 09:26:57;;;;;;;;;24.20;21.20;;;;;8.93;46.74;98721.00;6206040;28;126600;-57
2021/01/19 09:30:07;;;;;;;;;20.75;18.75;;;;;9.07;46.36;98729.81;6208195;28;126854;-57
2021/01/19 09:33:12;;;;;;;;;24.00;23.50;;;;;9.08;46.21;98726.91;6208062;28;126297;-58
2021/01/19 09:36:15;;;;;;;;;23.67;21.67;;;;;8.89;45.96;98689.38;6207124;28;125973;-58
2021/01/19 09:39:25;;;;;;;;;23.00;22.00;;;;;9.21;46.04;98731.38;6208260;28;126391;-58
2021/01/19 09:42:27;;;;;;;;;23.00;21.50;;;;;9.19;45.96;98729.94;6200493;28;125421;-58
2021/01/19 09:45:29;;;;;;;;;23.60;22.40;;;;;9.34;45.85;98731.28;6174824;28;124840;-58
2021/01/19 09:48:45;;;;;;;;;21.00;20.00;;;;;9.35;46.21;98732.94;6204777;28;126581;-58
2021/01/19 09:51:46;;;;;;;;;24.00;20.50;;;;;9.37;46.32;98720.09;6191937;28;127111;-59
2021/01/19 09:54:47;;;;;;;;;24.20;22.20;;;;;9.46;46.46;98718.78;6197235;28;126635;-60
2021/01/19 09:58:03;;;;;;;;;25.60;24.00;;;;;9.08;46.70;98667.75;6205294;28;126646;-58
2021/01/19 10:01:04;;;;;;;;;25.00;23.00;;;;;9.22;46.54;98691.84;6203294;28;126198;-58
2021/01/19 10:04:16;;;;;;;;;25.40;23.00;;;;;9.36;47.07;98725.69;6170975;28;124164;-59
2021/01/19 10:07:18;;;;;;;;;23.40;21.40;;;;;9.24;47.04;98692.44;6207031;28;126758;-59
2021/01/19 10:10:20;;;;;;;;;28.00;25.00;;;;;9.41;46.98;98710.53;6210402;28;128187;-59
2021/01/19 10:13:27;;;;;;;;;24.50;22.50;;;;;9.34;47.19;98701.69;6206841;28;125127;-59
2021/01/19 10:16:45;;;;;;;;;24.50;23.00;;;;;9.16;47.21;98685.47;6190713;28;124980;-60
2021/01/19 10:19:47;;;;;;;;;23.00;20.00;;;;;9.36;46.92;98710.38;6196920;28;125527;-60
2021/01/19 10:22:56;;;;;;;;;24.80;21.00;;;;;9.43;46.91;98705.75;6197176;28;124432;-59
2021/01/19 10:26:09;;;;;;;;;26.00;24.00;;;;;9.40;46.74;98698.13;6188438;28;123986;-58
2021/01/19 10:29:11;;;;;;;;;23.60;23.00;;;;;9.31;46.87;98682.47;6207732;28;123991;-58
2021/01/19 10:32:14;;;;;;;;;26.00;24.80;;;;;9.11;46.88;98653.84;6205726;28;125183;-58
2021/01/19 10:35:29;;;;;;;;;23.00;21.40;;;;;9.40;46.95;98687.34;6198443;28;126916;-58
2021/01/19 10:38:31;;;;;;;;;21.80;20.00;;;;;9.41;46.94;98690.88;6178316;28;126892;-58
2021/01/19 10:41:32;;;;;;;;;22.00;19.40;;;;;9.31;47.44;98677.91;6202752;28;125621;-60
2021/01/19 10:44:39;;;;;;;;;22.00;20.00;;;;;9.21;47.32;98653.38;6205010;28;124784;-58
2021/01/19 10:47:42;;;;;;;;;19.00;18.00;;;;;9.18;47.69;98667.25;6204902;28;126452;-58
2021/01/19 10:50:47;;;;;;;;;18.50;18.25;;;;;9.16;47.76;98649.69;6195271;28;123884;-58
2021/01/19 10:53:49;;;;;;;;;21.67;20.67;;;;;9.40;47.47;98654.25;6190580;28;126434;-57
2021/01/19 10:57:05;;;;;;;;;17.80;16.20;;;;;9.52;47.10;98652.50;6184847;28;125936;-59
2021/01/19 11:00:07;;;;;;;;;19.00;18.00;;;;;9.68;46.90;98651.91;6205060;28;125847;-59
2021/01/19 11:03:08;;;;;;;;;21.00;18.00;;;;;9.64;46.28;98614.91;6190402;28;123434;-58
2021/01/19 11:06:10;;;;;;;;;20.00;19.00;;;;;9.94;46.21;98648.13;6201822;28;126461;-60
2021/01/19 11:09:12;;;;;;;;;18.60;17.00;;;;;10.00;45.97;98641.88;6202314;28;127634;-57
2021/01/19 11:12:16;;;;;;;;;19.00;18.00;;;;;9.78;45.97;98602.94;6206934;28;126224;-58
2021/01/19 11:15:18;;;;;;;;;17.00;15.00;;;;;9.80;45.93;98617.84;6199985;28;125925;-59
2021/01/19 11:18:20;;;;;;;;;19.00;17.67;;;;;9.91;46.07;98630.56;6204860;28;125315;-58
2021/01/19 11:21:21;;;;;;;;;18.00;17.00;;;;;10.04;45.63;98628.78;6203877;28;124314;-58
2021/01/19 11:24:23;;;;;;;;;18.00;16.75;;;;;10.02;45.74;98634.38;6204139;28;125286;-58
2021/01/19 11:27:26;;;;;;;;;17.00;16.00;;;;;9.75;45.74;98574.63;6203717;28;125590;-60
2021/01/19 11:30:30;;;;;;;;;16.40;15.40;;;;;9.99;45.49;98597.94;6169202;28;126224;-59
2021/01/19 11:33:31;;;;;;;;;19.60;18.00;;;;;9.91;45.34;98570.50;6200177;28;127112;-60
2021/01/19 11:36:38;;;;;;;;;15.40;13.80;;;;;10.02;45.38;98610.97;6171915;28;125559;-61
2021/01/19 11:39:40;;;;;;;;;16.50;14.00;;;;;9.98;45.32;98598.16;6201258;28;124663;-59
2021/01/19 11:42:41;;;;;;;;;19.00;16.75;;;;;9.98;45.28;98599.00;6202666;28;125396;-59
2021/01/19 11:45:43;;;;;;;;;14.60;14.40;;;;;9.95;45.28;98585.16;6181529;28;125381;-60
2021/01/19 11:48:45;;;;;;;;;17.00;15.00;;;;;10.22;44.90;98599.97;6201092;28;98470;-59
2021/01/19 11:51:47;;;;;;;;;16.60;14.00;;;;;10.20;44.58;98590.50;6178160;28;125305;-59
2021/01/19 11:54:49;;;;;;;;;16.00;15.00;;;;;10.29;44.69;98595.34;6197389;28;127270;-60
2021/01/19 11:57:50;;;;;;;;;20.00;17.00;;;;;10.32;44.50;98589.50;6182224;28;125739;-59
2021/01/19 12:00:52;;;;;;;;;18.75;17.00;;;;;10.13;44.26;98550.13;6201787;28;126555;-59
2021/01/19 12:03:54;;;;;;;;;19.40;16.40;;;;;10.23;44.28;98555.00;6199368;28;126527;-58
2021/01/19 12:06:55;;;;;;;;;17.20;17.00;;;;;10.12;44.34;98536.88;6203430;28;125013;-60
2021/01/19 12:09:57;;;;;;;;;17.00;16.60;;;;;10.47;44.06;98581.00;6200059;28;125762;-60
2021/01/19 12:12:59;;;;;;;;;17.20;16.00;;;;;10.51;43.77;98573.28;6204667;28;126423;-61
2021/01/19 12:16:00;;;;;;;;;21.00;19.40;;;;;10.60;43.87;98566.53;6205166;28;128037;-60
2021/01/19 12:19:09;;;;;;;;;19.00;18.00;;;;;10.70;43.73;98562.19;6186301;28;128551;-60
2021/01/19 12:22:11;;;;;;;;;20.40;19.00;;;;;10.77;43.47;98565.63;6204746;28;123990;-60
2021/01/19 12:25:12;;;;;;;;;19.00;16.00;;;;;10.78;43.33;98558.38;6207412;28;127943;-59
2021/01/19 12:28:14;;;;;;;;;22.00;18.50;;;;;10.64;43.28;98533.50;6206532;28;125882;-60
2021/01/19 12:31:15;;;;;;;;;18.50;16.25;;;;;10.90;43.28;98561.09;6201245;28;124771;-60
2021/01/19 12:34:18;;;;;;;;;20.75;19.75;;;;;10.98;43.09;98550.78;6207143;28;128270;-60
2021/01/19 12:37:20;;;;;;;;;22.00;17.60;;;;;11.05;42.80;98553.38;6188825;28;124730;-61
2021/01/19 12:40:22;;;;;;;;;20.00;17.20;;;;;11.10;42.43;98545.41;6175236;28;127231;-59
2021/01/19 12:43:23;;;;;;;;;20.00;19.00;;;;;11.19;42.45;98541.31;6206629;28;124518;-59
2021/01/19 12:46:25;;;;;;;;;21.20;20.00;;;;;11.22;42.37;98538.16;6195371;28;126753;-59
2021/01/19 12:49:27;;;;;;;;;25.00;21.00;;;;;11.27;41.77;98527.47;6203354;28;125124;-60
2021/01/19 12:52:28;;;;;;;;;21.00;18.40;;;;;11.29;41.66;98525.34;6189139;28;126371;-59
2021/01/19 12:55:31;;;;;;;;;20.60;19.60;;;;;11.41;41.64;98525.34;6189328;28;125432;-59
2021/01/19 12:58:32;;;;;;;;;24.00;22.00;;;;;11.45;41.43;98519.25;6203339;28;126473;-60
2021/01/19 13:01:35;;;;;;;;;21.40;19.20;;;;;11.40;41.37;98519.13;6201565;28;127595;-59
2021/01/19 13:04:36;;;;;;;;;20.00;18.00;;;;;11.25;41.36;98487.22;6200020;28;126839;-59
2021/01/19 13:07:39;;;;;;;;;22.00;20.00;;;;;11.63;41.29;98521.00;6203259;28;127343;-58
2021/01/19 13:10:40;;;;;;;;;21.00;20.20;;;;;11.34;40.76;98470.69;6201991;28;125039;-59
2021/01/19 13:13:41;;;;;;;;;22.40;21.00;;;;;11.83;40.52;98513.34;6201355;28;125643;-60
2021/01/19 13:16:43;;;;;;;;;21.20;20.20;;;;;11.65;40.37;98476.50;6203158;28;126421;-60
2021/01/19 13:19:45;;;;;;;;;24.00;21.00;;;;;11.99;40.24;98520.69;6199743;28;126794;-59
2021/01/19 13:22:47;;;;;;;;;24.00;22.00;;;;;11.89;39.93;98500.75;6204988;28;125241;-59
2021/01/19 13:25:48;;;;;;;;;20.00;19.33;;;;;11.63;39.90;98448.91;6207660;28;127542;-60
2021/01/19 13:28:49;;;;;;;;;23.00;22.00;;;;;12.09;39.44;98512.78;6198919;28;126647;-59
2021/01/19 13:31:51;;;;;;;;;20.60;19.60;;;;;12.02;39.46;98519.41;6192951;28;125587;-60
2021/01/19 13:34:53;;;;;;;;;20.50;19.00;;;;;11.83;39.51;98510.63;6203142;28;125439;-59
2021/01/19 13:37:54;;;;;;;;;25.20;22.60;;;;;11.83;39.89;98507.94;6192053;28;126904;-58
2021/01/19 13:40:56;;;;;;;;;22.60;19.00;;;;;11.69;39.85;98511.94;6204880;28;126502;-60
2021/01/19 13:43:57;;;;;;;;;21.75;18.00;;;;;11.59;40.19;98509.81;6205353;28;127651;-57
2021/01/19 13:46:58;;;;;;;;;22.00;20.00;;;;;11.53;40.19;98501.88;6206589;28;128167;-57
2021/01/19 13:50:00;;;;;;;;;20.00;19.00;;;;;11.49;40.31;98504.22;6182510;28;127706;-59
2021/01/19 13:53:02;;;;;;;;;20.75;19.00;;;;;11.38;40.19;98493.44;6204014;28;126266;-59
2021/01/19 13:56:04;;;;;;;;;24.00;20.60;;;;;11.10;40.74;98478.78;6207718;28;127429;-57
2021/01/19 13:59:06;;;;;;;;;20.00;18.00;;;;;11.11;40.77;98488.53;6204474;28;126452;-58
2021/01/19 14:02:08;;;;;;;;;21.75;18.75;;;;;10.77;40.77;98435.38;6207592;28;127475;-58
2021/01/19 14:05:10;;;;;;;;;23.00;21.00;;;;;10.75;40.82;98449.09;6202319;28;125638;-59